sensor_id;sensor_type;location;lat;lon;timestamp;temperature;humidity
50544;DHT22;41176;44.032;20.900;2024-03-29T00:01:05;16.70;63.90
50544;DHT22;41176;44.032;20.900;2024-03-29T00:03:30;16.60;63.90
50544;DHT22;41176;44.032;20.900;2024-03-29T00:05:56;16.60;64.00
50544;DHT22;41176;44.032;20.900;2024-03-29T00:08:22;16.60;64.10
50544;DHT22;41176;44.032;20.900;2024-03-29T00:10:47;16.50;64.40
50544;DHT22;41176;44.032;20.900;2024-03-29T00:13:13;16.50;64.40
50544;DHT22;41176;44.032;20.900;2024-03-29T00:15:39;16.40;64.60
50544;DHT22;41176;44.032;20.900;2024-03-29T00:18:05;16.30;64.70
50544;DHT22;41176;44.032;20.900;2024-03-29T00:20:31;16.30;65.00
50544;DHT22;41176;44.032;20.900;2024-03-29T00:22:57;16.30;65.00
50544;DHT22;41176;44.032;20.900;2024-03-29T00:25:23;16.30;65.10
50544;DHT22;41176;44.032;20.900;2024-03-29T00:27:48;16.30;64.90
50544;DHT22;41176;44.032;20.900;2024-03-29T00:30:14;16.40;64.80
50544;DHT22;41176;44.032;20.900;2024-03-29T00:32:40;16.40;64.90
50544;DHT22;41176;44.032;20.900;2024-03-29T00:35:06;16.40;64.90
50544;DHT22;41176;44.032;20.900;2024-03-29T00:37:33;16.30;65.10
50544;DHT22;41176;44.032;20.900;2024-03-29T00:39:59;16.30;65.20
50544;DHT22;41176;44.032;20.900;2024-03-29T00:42:25;16.30;65.10
50544;DHT22;41176;44.032;20.900;2024-03-29T00:44:51;16.40;65.00
50544;DHT22;41176;44.032;20.900;2024-03-29T00:47:16;16.40;65.00
50544;DHT22;41176;44.032;20.900;2024-03-29T00:49:42;16.40;65.00
50544;DHT22;41176;44.032;20.900;2024-03-29T00:52:08;16.40;65.10
50544;DHT22;41176;44.032;20.900;2024-03-29T00:54:34;16.40;65.10
50544;DHT22;41176;44.032;20.900;2024-03-29T00:56:59;16.40;65.30
50544;DHT22;41176;44.032;20.900;2024-03-29T00:59:25;16.30;65.50
50544;DHT22;41176;44.032;20.900;2024-03-29T01:01:51;16.30;65.80
50544;DHT22;41176;44.032;20.900;2024-03-29T01:04:17;16.10;66.60
50544;DHT22;41176;44.032;20.900;2024-03-29T01:06:43;15.90;67.30
50544;DHT22;41176;44.032;20.900;2024-03-29T01:09:09;15.80;67.30
50544;DHT22;41176;44.032;20.900;2024-03-29T01:11:39;15.70;67.70
50544;DHT22;41176;44.032;20.900;2024-03-29T01:14:07;15.60;68.20
50544;DHT22;41176;44.032;20.900;2024-03-29T01:16:33;15.50;69.00
50544;DHT22;41176;44.032;20.900;2024-03-29T01:18:59;15.50;68.30
50544;DHT22;41176;44.032;20.900;2024-03-29T01:21:26;15.30;68.70
50544;DHT22;41176;44.032;20.900;2024-03-29T01:23:52;15.20;69.10
50544;DHT22;41176;44.032;20.900;2024-03-29T01:26:18;15.10;69.70
50544;DHT22;41176;44.032;20.900;2024-03-29T01:28:44;15.10;69.80
50544;DHT22;41176;44.032;20.900;2024-03-29T01:31:09;15.10;69.70
50544;DHT22;41176;44.032;20.900;2024-03-29T01:33:35;15.10;69.40
50544;DHT22;41176;44.032;20.900;2024-03-29T01:36:04;15.20;69.30
50544;DHT22;41176;44.032;20.900;2024-03-29T01:38:30;15.20;69.70
50544;DHT22;41176;44.032;20.900;2024-03-29T01:40:56;15.20;70.60
50544;DHT22;41176;44.032;20.900;2024-03-29T01:43:21;15.00;71.20
50544;DHT22;41176;44.032;20.900;2024-03-29T01:45:49;14.90;70.40
50544;DHT22;41176;44.032;20.900;2024-03-29T01:48:17;14.90;70.40
50544;DHT22;41176;44.032;20.900;2024-03-29T01:50:43;14.80;70.70
50544;DHT22;41176;44.032;20.900;2024-03-29T01:53:09;14.80;71.10
50544;DHT22;41176;44.032;20.900;2024-03-29T01:55:36;14.70;71.20
50544;DHT22;41176;44.032;20.900;2024-03-29T01:58:02;14.60;71.40
50544;DHT22;41176;44.032;20.900;2024-03-29T02:00:28;14.60;71.50
50544;DHT22;41176;44.032;20.900;2024-03-29T02:02:54;14.60;71.80
50544;DHT22;41176;44.032;20.900;2024-03-29T02:05:22;14.60;71.80
50544;DHT22;41176;44.032;20.900;2024-03-29T02:07:48;14.60;71.70
50544;DHT22;41176;44.032;20.900;2024-03-29T02:10:15;14.60;72.00
50544;DHT22;41176;44.032;20.900;2024-03-29T02:12:41;14.70;72.70
50544;DHT22;41176;44.032;20.900;2024-03-29T02:15:06;14.50;72.40
50544;DHT22;41176;44.032;20.900;2024-03-29T02:17:33;14.50;73.00
50544;DHT22;41176;44.032;20.900;2024-03-29T02:19:59;14.30;73.90
50544;DHT22;41176;44.032;20.900;2024-03-29T02:22:25;14.20;74.20
50544;DHT22;41176;44.032;20.900;2024-03-29T02:24:54;14.10;74.10
50544;DHT22;41176;44.032;20.900;2024-03-29T02:27:21;14.10;74.10
50544;DHT22;41176;44.032;20.900;2024-03-29T02:29:47;14.10;74.20
50544;DHT22;41176;44.032;20.900;2024-03-29T02:32:12;14.00;74.90
50544;DHT22;41176;44.032;20.900;2024-03-29T02:34:38;13.90;74.60
50544;DHT22;41176;44.032;20.900;2024-03-29T02:37:04;13.90;74.90
50544;DHT22;41176;44.032;20.900;2024-03-29T02:39:30;13.80;75.20
50544;DHT22;41176;44.032;20.900;2024-03-29T02:41:56;13.90;75.20
50544;DHT22;41176;44.032;20.900;2024-03-29T02:44:21;13.90;75.50
50544;DHT22;41176;44.032;20.900;2024-03-29T02:46:47;13.90;75.70
50544;DHT22;41176;44.032;20.900;2024-03-29T02:49:13;13.90;76.10
50544;DHT22;41176;44.032;20.900;2024-03-29T02:51:38;13.80;76.90
50544;DHT22;41176;44.032;20.900;2024-03-29T02:54:04;13.70;77.10
50544;DHT22;41176;44.032;20.900;2024-03-29T02:56:30;13.60;76.80
50544;DHT22;41176;44.032;20.900;2024-03-29T02:58:56;13.60;76.90
50544;DHT22;41176;44.032;20.900;2024-03-29T03:01:21;13.70;76.30
50544;DHT22;41176;44.032;20.900;2024-03-29T03:03:47;13.70;76.50
50544;DHT22;41176;44.032;20.900;2024-03-29T03:06:13;13.70;76.50
50544;DHT22;41176;44.032;20.900;2024-03-29T03:08:39;13.70;76.70
50544;DHT22;41176;44.032;20.900;2024-03-29T03:11:23;13.70;77.10
50544;DHT22;41176;44.032;20.900;2024-03-29T03:13:48;13.60;77.70
50544;DHT22;41176;44.032;20.900;2024-03-29T03:16:14;13.50;78.50
50544;DHT22;41176;44.032;20.900;2024-03-29T03:18:40;13.40;78.80
50544;DHT22;41176;44.032;20.900;2024-03-29T03:21:06;13.40;79.00
50544;DHT22;41176;44.032;20.900;2024-03-29T03:23:31;13.40;79.20
50544;DHT22;41176;44.032;20.900;2024-03-29T03:26:02;13.40;79.00
50544;DHT22;41176;44.032;20.900;2024-03-29T03:28:31;13.50;79.00
50544;DHT22;41176;44.032;20.900;2024-03-29T03:30:57;13.50;78.40
50544;DHT22;41176;44.032;20.900;2024-03-29T03:33:23;13.60;78.30
50544;DHT22;41176;44.032;20.900;2024-03-29T03:35:49;13.80;78.00
50544;DHT22;41176;44.032;20.900;2024-03-29T03:38:15;13.90;77.80
50544;DHT22;41176;44.032;20.900;2024-03-29T03:40:42;14.00;77.80
50544;DHT22;41176;44.032;20.900;2024-03-29T03:43:08;14.00;77.70
50544;DHT22;41176;44.032;20.900;2024-03-29T03:45:36;14.00;77.90
50544;DHT22;41176;44.032;20.900;2024-03-29T03:48:06;14.10;77.60
50544;DHT22;41176;44.032;20.900;2024-03-29T03:50:32;14.10;77.80
50544;DHT22;41176;44.032;20.900;2024-03-29T03:52:58;14.00;78.10
50544;DHT22;41176;44.032;20.900;2024-03-29T03:55:24;14.00;78.40
50544;DHT22;41176;44.032;20.900;2024-03-29T03:57:50;13.90;78.60
50544;DHT22;41176;44.032;20.900;2024-03-29T04:00:18;13.90;79.10
50544;DHT22;41176;44.032;20.900;2024-03-29T04:02:51;13.90;79.30
50544;DHT22;41176;44.032;20.900;2024-03-29T04:05:20;14.00;79.30
50544;DHT22;41176;44.032;20.900;2024-03-29T04:07:46;14.10;79.20
50544;DHT22;41176;44.032;20.900;2024-03-29T04:10:12;14.00;80.00
50544;DHT22;41176;44.032;20.900;2024-03-29T04:12:38;14.10;79.40
50544;DHT22;41176;44.032;20.900;2024-03-29T04:15:05;14.10;79.60
50544;DHT22;41176;44.032;20.900;2024-03-29T04:17:31;14.20;79.40
50544;DHT22;41176;44.032;20.900;2024-03-29T04:19:58;14.20;79.60
50544;DHT22;41176;44.032;20.900;2024-03-29T04:22:24;14.20;79.40
50544;DHT22;41176;44.032;20.900;2024-03-29T04:24:51;14.40;79.20
50544;DHT22;41176;44.032;20.900;2024-03-29T04:27:17;14.40;79.00
50544;DHT22;41176;44.032;20.900;2024-03-29T04:29:42;14.40;79.00
50544;DHT22;41176;44.032;20.900;2024-03-29T04:32:08;14.40;79.20
50544;DHT22;41176;44.032;20.900;2024-03-29T04:34:34;14.40;79.30
50544;DHT22;41176;44.032;20.900;2024-03-29T04:37:00;14.40;79.50
50544;DHT22;41176;44.032;20.900;2024-03-29T04:39:26;14.40;79.50
50544;DHT22;41176;44.032;20.900;2024-03-29T04:41:52;14.50;79.40
50544;DHT22;41176;44.032;20.900;2024-03-29T04:44:25;14.50;79.40
50544;DHT22;41176;44.032;20.900;2024-03-29T04:46:52;14.50;79.60
50544;DHT22;41176;44.032;20.900;2024-03-29T04:49:19;14.60;79.90
50544;DHT22;41176;44.032;20.900;2024-03-29T04:51:54;14.60;79.10
50544;DHT22;41176;44.032;20.900;2024-03-29T04:54:20;14.60;79.40
50544;DHT22;41176;44.032;20.900;2024-03-29T04:56:45;14.70;79.10
50544;DHT22;41176;44.032;20.900;2024-03-29T04:59:11;14.70;78.80
50544;DHT22;41176;44.032;20.900;2024-03-29T05:01:37;14.70;78.90
50544;DHT22;41176;44.032;20.900;2024-03-29T05:04:03;14.80;79.00
50544;DHT22;41176;44.032;20.900;2024-03-29T05:06:29;14.80;78.60
50544;DHT22;41176;44.032;20.900;2024-03-29T05:08:55;14.90;78.50
50544;DHT22;41176;44.032;20.900;2024-03-29T05:11:21;14.90;78.40
50544;DHT22;41176;44.032;20.900;2024-03-29T05:13:47;15.00;78.30
50544;DHT22;41176;44.032;20.900;2024-03-29T05:16:13;15.00;78.10
50544;DHT22;41176;44.032;20.900;2024-03-29T05:18:39;15.00;78.30
50544;DHT22;41176;44.032;20.900;2024-03-29T05:21:04;15.10;78.20
50544;DHT22;41176;44.032;20.900;2024-03-29T05:23:30;15.10;78.30
50544;DHT22;41176;44.032;20.900;2024-03-29T05:25:56;15.20;78.30
50544;DHT22;41176;44.032;20.900;2024-03-29T05:28:22;15.20;78.10
50544;DHT22;41176;44.032;20.900;2024-03-29T05:30:47;15.30;77.90
50544;DHT22;41176;44.032;20.900;2024-03-29T05:33:13;15.30;78.00
50544;DHT22;41176;44.032;20.900;2024-03-29T05:35:39;15.40;78.00
50544;DHT22;41176;44.032;20.900;2024-03-29T05:38:05;15.50;78.00
50544;DHT22;41176;44.032;20.900;2024-03-29T05:40:31;15.60;77.60
50544;DHT22;41176;44.032;20.900;2024-03-29T05:42:57;15.80;77.50
50544;DHT22;41176;44.032;20.900;2024-03-29T05:45:29;15.90;77.60
50544;DHT22;41176;44.032;20.900;2024-03-29T05:47:56;15.90;77.30
50544;DHT22;41176;44.032;20.900;2024-03-29T05:50:23;16.00;76.90
50544;DHT22;41176;44.032;20.900;2024-03-29T05:52:50;16.10;76.40
50544;DHT22;41176;44.032;20.900;2024-03-29T05:55:16;16.20;76.60
50544;DHT22;41176;44.032;20.900;2024-03-29T05:57:41;16.20;76.40
50544;DHT22;41176;44.032;20.900;2024-03-29T06:00:11;16.40;76.20
50544;DHT22;41176;44.032;20.900;2024-03-29T06:02:37;16.40;75.50
50544;DHT22;41176;44.032;20.900;2024-03-29T06:05:03;16.40;75.70
50544;DHT22;41176;44.032;20.900;2024-03-29T06:07:31;16.50;75.00
50544;DHT22;41176;44.032;20.900;2024-03-29T06:09:59;16.60;75.30
50544;DHT22;41176;44.032;20.900;2024-03-29T06:12:26;16.70;75.00
50544;DHT22;41176;44.032;20.900;2024-03-29T06:14:52;16.70;74.80
50544;DHT22;41176;44.032;20.900;2024-03-29T06:17:36;16.80;75.30
50544;DHT22;41176;44.032;20.900;2024-03-29T06:20:03;17.00;74.60
50544;DHT22;41176;44.032;20.900;2024-03-29T06:22:29;17.10;74.50
50544;DHT22;41176;44.032;20.900;2024-03-29T06:24:58;17.20;73.90
50544;DHT22;41176;44.032;20.900;2024-03-29T06:27:25;17.40;74.00
50544;DHT22;41176;44.032;20.900;2024-03-29T06:29:51;17.50;72.80
50544;DHT22;41176;44.032;20.900;2024-03-29T06:32:17;17.70;72.50
50544;DHT22;41176;44.032;20.900;2024-03-29T06:34:46;17.80;72.60
50544;DHT22;41176;44.032;20.900;2024-03-29T06:37:12;17.90;72.20
50544;DHT22;41176;44.032;20.900;2024-03-29T06:39:38;18.10;71.10
50544;DHT22;41176;44.032;20.900;2024-03-29T06:42:04;18.20;71.10
50544;DHT22;41176;44.032;20.900;2024-03-29T06:44:33;18.30;70.20
50544;DHT22;41176;44.032;20.900;2024-03-29T06:46:59;18.40;70.90
50544;DHT22;41176;44.032;20.900;2024-03-29T06:49:24;18.40;70.40
50544;DHT22;41176;44.032;20.900;2024-03-29T06:51:50;18.50;69.80
50544;DHT22;41176;44.032;20.900;2024-03-29T06:54:16;18.60;69.50
50544;DHT22;41176;44.032;20.900;2024-03-29T06:56:41;18.70;69.70
50544;DHT22;41176;44.032;20.900;2024-03-29T06:59:07;18.80;69.20
50544;DHT22;41176;44.032;20.900;2024-03-29T07:01:33;18.90;68.70
50544;DHT22;41176;44.032;20.900;2024-03-29T07:03:59;18.90;69.30
50544;DHT22;41176;44.032;20.900;2024-03-29T07:06:25;19.00;68.50
50544;DHT22;41176;44.032;20.900;2024-03-29T07:08:51;19.10;68.90
50544;DHT22;41176;44.032;20.900;2024-03-29T07:11:16;19.30;67.00
50544;DHT22;41176;44.032;20.900;2024-03-29T07:13:42;19.30;68.20
50544;DHT22;41176;44.032;20.900;2024-03-29T07:16:11;19.40;68.20
50544;DHT22;41176;44.032;20.900;2024-03-29T07:18:45;19.60;68.30
50544;DHT22;41176;44.032;20.900;2024-03-29T07:21:14;19.70;66.50
50544;DHT22;41176;44.032;20.900;2024-03-29T07:23:40;19.80;66.60
50544;DHT22;41176;44.032;20.900;2024-03-29T07:26:06;19.90;65.80
50544;DHT22;41176;44.032;20.900;2024-03-29T07:28:32;19.80;65.80
50544;DHT22;41176;44.032;20.900;2024-03-29T07:30:58;19.90;66.60
50544;DHT22;41176;44.032;20.900;2024-03-29T07:33:30;20.10;65.70
50544;DHT22;41176;44.032;20.900;2024-03-29T07:35:56;20.10;65.20
50544;DHT22;41176;44.032;20.900;2024-03-29T07:38:23;20.10;65.50
50544;DHT22;41176;44.032;20.900;2024-03-29T07:40:49;20.10;65.00
50544;DHT22;41176;44.032;20.900;2024-03-29T07:43:15;20.30;64.70
50544;DHT22;41176;44.032;20.900;2024-03-29T07:45:42;20.30;64.10
50544;DHT22;41176;44.032;20.900;2024-03-29T07:48:14;20.20;64.80
50544;DHT22;41176;44.032;20.900;2024-03-29T07:50:43;20.30;64.80
50544;DHT22;41176;44.032;20.900;2024-03-29T07:53:10;20.30;64.00
50544;DHT22;41176;44.032;20.900;2024-03-29T07:55:37;20.40;64.90
50544;DHT22;41176;44.032;20.900;2024-03-29T07:58:04;20.60;63.10
50544;DHT22;41176;44.032;20.900;2024-03-29T08:00:51;20.50;63.10
50544;DHT22;41176;44.032;20.900;2024-03-29T08:03:17;20.50;64.10
50544;DHT22;41176;44.032;20.900;2024-03-29T08:05:43;20.50;63.10
50544;DHT22;41176;44.032;20.900;2024-03-29T08:08:18;20.60;63.40
50544;DHT22;41176;44.032;20.900;2024-03-29T08:10:44;20.60;63.50
50544;DHT22;41176;44.032;20.900;2024-03-29T08:13:10;20.70;63.90
50544;DHT22;41176;44.032;20.900;2024-03-29T08:15:36;20.80;63.10
50544;DHT22;41176;44.032;20.900;2024-03-29T08:18:01;20.90;63.00
50544;DHT22;41176;44.032;20.900;2024-03-29T08:20:27;20.80;63.70
50544;DHT22;41176;44.032;20.900;2024-03-29T08:22:56;21.00;63.80
50544;DHT22;41176;44.032;20.900;2024-03-29T08:25:23;21.20;63.50
50544;DHT22;41176;44.032;20.900;2024-03-29T08:27:50;21.30;64.00
50544;DHT22;41176;44.032;20.900;2024-03-29T08:30:16;21.50;63.40
50544;DHT22;41176;44.032;20.900;2024-03-29T08:32:41;21.50;62.40
50544;DHT22;41176;44.032;20.900;2024-03-29T08:35:07;21.50;61.80
50544;DHT22;41176;44.032;20.900;2024-03-29T08:37:33;21.50;63.20
50544;DHT22;41176;44.032;20.900;2024-03-29T08:39:59;21.40;62.10
50544;DHT22;41176;44.032;20.900;2024-03-29T08:42:24;21.40;61.20
50544;DHT22;41176;44.032;20.900;2024-03-29T08:44:50;21.40;61.80
50544;DHT22;41176;44.032;20.900;2024-03-29T08:47:16;21.50;61.50
50544;DHT22;41176;44.032;20.900;2024-03-29T08:49:41;21.50;62.50
50544;DHT22;41176;44.032;20.900;2024-03-29T08:52:07;21.70;61.80
50544;DHT22;41176;44.032;20.900;2024-03-29T08:54:33;21.70;61.30
50544;DHT22;41176;44.032;20.900;2024-03-29T08:56:59;21.60;61.50
50544;DHT22;41176;44.032;20.900;2024-03-29T08:59:27;21.70;61.20
50544;DHT22;41176;44.032;20.900;2024-03-29T09:01:53;21.80;61.70
50544;DHT22;41176;44.032;20.900;2024-03-29T09:04:19;21.90;60.10
50544;DHT22;41176;44.032;20.900;2024-03-29T09:06:45;22.00;60.80
50544;DHT22;41176;44.032;20.900;2024-03-29T09:09:11;22.10;60.10
50544;DHT22;41176;44.032;20.900;2024-03-29T09:11:36;22.20;60.40
50544;DHT22;41176;44.032;20.900;2024-03-29T09:14:02;22.40;59.80
50544;DHT22;41176;44.032;20.900;2024-03-29T09:16:30;22.30;60.10
50544;DHT22;41176;44.032;20.900;2024-03-29T09:18:56;22.40;60.30
50544;DHT22;41176;44.032;20.900;2024-03-29T09:21:22;22.50;60.30
50544;DHT22;41176;44.032;20.900;2024-03-29T09:23:48;22.60;59.60
50544;DHT22;41176;44.032;20.900;2024-03-29T09:26:16;22.70;61.40
50544;DHT22;41176;44.032;20.900;2024-03-29T09:28:42;22.70;57.60
50544;DHT22;41176;44.032;20.900;2024-03-29T09:31:07;22.60;59.00
50544;DHT22;41176;44.032;20.900;2024-03-29T09:33:33;22.60;58.80
50544;DHT22;41176;44.032;20.900;2024-03-29T09:35:59;22.70;58.30
50544;DHT22;41176;44.032;20.900;2024-03-29T09:38:26;22.80;59.00
50544;DHT22;41176;44.032;20.900;2024-03-29T09:41:16;22.90;60.00
50544;DHT22;41176;44.032;20.900;2024-03-29T09:43:42;23.00;57.40
50544;DHT22;41176;44.032;20.900;2024-03-29T09:46:12;22.80;57.60
50544;DHT22;41176;44.032;20.900;2024-03-29T09:48:41;22.80;58.60
50544;DHT22;41176;44.032;20.900;2024-03-29T09:51:08;23.00;58.50
50544;DHT22;41176;44.032;20.900;2024-03-29T09:53:36;23.10;57.20
50544;DHT22;41176;44.032;20.900;2024-03-29T09:56:06;23.20;55.90
50544;DHT22;41176;44.032;20.900;2024-03-29T09:58:36;23.30;57.40
50544;DHT22;41176;44.032;20.900;2024-03-29T10:01:03;23.50;56.50
50544;DHT22;41176;44.032;20.900;2024-03-29T10:03:30;23.60;56.60
50544;DHT22;41176;44.032;20.900;2024-03-29T10:06:00;23.60;56.00
50544;DHT22;41176;44.032;20.900;2024-03-29T10:08:30;23.40;55.50
50544;DHT22;41176;44.032;20.900;2024-03-29T10:10:57;23.30;56.00
50544;DHT22;41176;44.032;20.900;2024-03-29T10:13:23;23.30;56.60
50544;DHT22;41176;44.032;20.900;2024-03-29T10:15:50;23.30;55.80
50544;DHT22;41176;44.032;20.900;2024-03-29T10:18:17;23.40;55.50
50544;DHT22;41176;44.032;20.900;2024-03-29T10:20:45;23.60;55.80
50544;DHT22;41176;44.032;20.900;2024-03-29T10:23:11;23.70;55.70
50544;DHT22;41176;44.032;20.900;2024-03-29T10:25:37;23.70;54.90
50544;DHT22;41176;44.032;20.900;2024-03-29T10:28:03;24.00;55.00
50544;DHT22;41176;44.032;20.900;2024-03-29T10:30:33;24.20;54.30
50544;DHT22;41176;44.032;20.900;2024-03-29T10:33:00;24.20;54.00
50544;DHT22;41176;44.032;20.900;2024-03-29T10:35:26;24.30;55.10
50544;DHT22;41176;44.032;20.900;2024-03-29T10:37:53;24.20;54.90
50544;DHT22;41176;44.032;20.900;2024-03-29T10:40:23;24.40;54.60
50544;DHT22;41176;44.032;20.900;2024-03-29T10:42:52;24.50;55.10
50544;DHT22;41176;44.032;20.900;2024-03-29T10:45:18;24.70;54.00
50544;DHT22;41176;44.032;20.900;2024-03-29T10:47:46;24.80;54.40
50544;DHT22;41176;44.032;20.900;2024-03-29T10:50:13;24.70;53.10
50544;DHT22;41176;44.032;20.900;2024-03-29T10:52:43;24.70;55.20
50544;DHT22;41176;44.032;20.900;2024-03-29T10:55:09;24.90;53.30
50544;DHT22;41176;44.032;20.900;2024-03-29T10:57:40;24.90;53.90
50544;DHT22;41176;44.032;20.900;2024-03-29T11:00:14;25.00;52.90
50544;DHT22;41176;44.032;20.900;2024-03-29T11:03:05;25.00;54.20
50544;DHT22;41176;44.032;20.900;2024-03-29T11:05:35;25.30;53.50
50544;DHT22;41176;44.032;20.900;2024-03-29T11:08:02;25.50;54.10
50544;DHT22;41176;44.032;20.900;2024-03-29T11:10:43;25.60;51.50
50544;DHT22;41176;44.032;20.900;2024-03-29T11:15:44;25.40;48.90
50544;DHT22;41176;44.032;20.900;2024-03-29T11:18:12;25.30;50.70
50544;DHT22;41176;44.032;20.900;2024-03-29T11:20:39;25.30;49.70
50544;DHT22;41176;44.032;20.900;2024-03-29T11:23:11;25.30;50.20
50544;DHT22;41176;44.032;20.900;2024-03-29T11:25:45;25.70;49.60
50544;DHT22;41176;44.032;20.900;2024-03-29T11:28:22;25.60;50.20
50544;DHT22;41176;44.032;20.900;2024-03-29T11:30:50;25.70;50.80
50544;DHT22;41176;44.032;20.900;2024-03-29T11:38:38;25.90;51.20
50544;DHT22;41176;44.032;20.900;2024-03-29T11:41:17;26.10;50.80
50544;DHT22;41176;44.032;20.900;2024-03-29T11:43:43;26.00;50.80
50544;DHT22;41176;44.032;20.900;2024-03-29T11:46:12;25.80;50.10
50544;DHT22;41176;44.032;20.900;2024-03-29T11:48:38;25.60;49.80
50544;DHT22;41176;44.032;20.900;2024-03-29T11:51:06;25.40;50.70
50544;DHT22;41176;44.032;20.900;2024-03-29T11:53:32;25.20;50.30
50544;DHT22;41176;44.032;20.900;2024-03-29T11:55:59;25.20;50.60
50544;DHT22;41176;44.032;20.900;2024-03-29T11:58:27;25.30;49.90
50544;DHT22;41176;44.032;20.900;2024-03-29T12:00:54;25.30;49.30
50544;DHT22;41176;44.032;20.900;2024-03-29T12:03:21;25.30;48.60
50544;DHT22;41176;44.032;20.900;2024-03-29T12:05:49;25.30;48.70
50544;DHT22;41176;44.032;20.900;2024-03-29T12:08:20;25.30;49.30
50544;DHT22;41176;44.032;20.900;2024-03-29T12:10:46;25.20;49.20
50544;DHT22;41176;44.032;20.900;2024-03-29T12:13:13;25.20;50.30
50544;DHT22;41176;44.032;20.900;2024-03-29T12:15:40;25.40;49.30
50544;DHT22;41176;44.032;20.900;2024-03-29T12:18:06;25.30;48.30
50544;DHT22;41176;44.032;20.900;2024-03-29T12:20:33;25.60;48.40
50544;DHT22;41176;44.032;20.900;2024-03-29T12:23:04;25.90;48.70
50544;DHT22;41176;44.032;20.900;2024-03-29T12:25:31;25.90;48.20
50544;DHT22;41176;44.032;20.900;2024-03-29T12:27:58;26.00;48.80
50544;DHT22;41176;44.032;20.900;2024-03-29T12:30:24;25.80;49.00
50544;DHT22;41176;44.032;20.900;2024-03-29T12:33:01;25.70;49.30
50544;DHT22;41176;44.032;20.900;2024-03-29T12:35:28;25.60;48.00
50544;DHT22;41176;44.032;20.900;2024-03-29T12:37:59;25.60;49.10
50544;DHT22;41176;44.032;20.900;2024-03-29T12:40:26;25.60;47.80
50544;DHT22;41176;44.032;20.900;2024-03-29T12:42:54;25.50;48.10
50544;DHT22;41176;44.032;20.900;2024-03-29T12:45:19;25.40;48.30
50544;DHT22;41176;44.032;20.900;2024-03-29T12:47:49;25.60;50.00
50544;DHT22;41176;44.032;20.900;2024-03-29T12:50:27;25.90;48.80
50544;DHT22;41176;44.032;20.900;2024-03-29T12:52:54;26.30;48.50
50544;DHT22;41176;44.032;20.900;2024-03-29T12:55:21;26.50;47.30
50544;DHT22;41176;44.032;20.900;2024-03-29T12:57:47;26.40;45.90
50544;DHT22;41176;44.032;20.900;2024-03-29T13:00:13;26.40;46.60
50544;DHT22;41176;44.032;20.900;2024-03-29T13:02:39;26.50;47.70
50544;DHT22;41176;44.032;20.900;2024-03-29T13:05:04;26.50;46.00
50544;DHT22;41176;44.032;20.900;2024-03-29T13:07:31;26.60;47.60
50544;DHT22;41176;44.032;20.900;2024-03-29T13:09:57;26.80;46.60
50544;DHT22;41176;44.032;20.900;2024-03-29T13:12:31;26.90;46.50
50544;DHT22;41176;44.032;20.900;2024-03-29T13:15:01;26.90;46.50
50544;DHT22;41176;44.032;20.900;2024-03-29T13:17:28;27.10;46.20
50544;DHT22;41176;44.032;20.900;2024-03-29T13:19:53;27.30;45.50
50544;DHT22;41176;44.032;20.900;2024-03-29T13:22:19;27.40;45.80
50544;DHT22;41176;44.032;20.900;2024-03-29T13:24:45;27.60;45.00
50544;DHT22;41176;44.032;20.900;2024-03-29T13:27:11;27.50;45.20
50544;DHT22;41176;44.032;20.900;2024-03-29T13:29:38;27.30;46.40
50544;DHT22;41176;44.032;20.900;2024-03-29T13:32:04;27.40;45.10
50544;DHT22;41176;44.032;20.900;2024-03-29T13:34:30;27.50;45.80
50544;DHT22;41176;44.032;20.900;2024-03-29T13:36:55;27.70;44.70
50544;DHT22;41176;44.032;20.900;2024-03-29T13:39:21;27.80;46.20
50544;DHT22;41176;44.032;20.900;2024-03-29T13:41:49;27.80;45.20
50544;DHT22;41176;44.032;20.900;2024-03-29T13:44:15;27.70;45.50
50544;DHT22;41176;44.032;20.900;2024-03-29T13:46:42;27.90;46.00
50544;DHT22;41176;44.032;20.900;2024-03-29T13:49:08;28.10;44.90
50544;DHT22;41176;44.032;20.900;2024-03-29T13:51:34;28.40;44.70
50544;DHT22;41176;44.032;20.900;2024-03-29T13:54:00;28.40;45.00
50544;DHT22;41176;44.032;20.900;2024-03-29T13:56:26;28.90;46.60
50544;DHT22;41176;44.032;20.900;2024-03-29T13:58:51;29.80;46.40
50544;DHT22;41176;44.032;20.900;2024-03-29T14:01:17;31.10;44.30
50544;DHT22;41176;44.032;20.900;2024-03-29T14:03:45;32.20;41.30
50544;DHT22;41176;44.032;20.900;2024-03-29T14:06:10;33.30;40.90
50544;DHT22;41176;44.032;20.900;2024-03-29T14:08:36;34.70;40.40
50544;DHT22;41176;44.032;20.900;2024-03-29T14:11:02;36.20;38.60
50544;DHT22;41176;44.032;20.900;2024-03-29T14:13:29;35.70;38.00
50544;DHT22;41176;44.032;20.900;2024-03-29T14:15:54;34.80;38.40
50544;DHT22;41176;44.032;20.900;2024-03-29T14:18:24;34.20;37.70
50544;DHT22;41176;44.032;20.900;2024-03-29T14:20:50;33.00;39.20
50544;DHT22;41176;44.032;20.900;2024-03-29T14:23:16;31.90;40.20
50544;DHT22;41176;44.032;20.900;2024-03-29T14:25:44;30.80;41.00
50544;DHT22;41176;44.032;20.900;2024-03-29T14:28:10;30.30;42.40
50544;DHT22;41176;44.032;20.900;2024-03-29T14:30:36;29.90;41.20
50544;DHT22;41176;44.032;20.900;2024-03-29T14:33:02;30.10;44.10
50544;DHT22;41176;44.032;20.900;2024-03-29T14:35:32;30.80;40.90
50544;DHT22;41176;44.032;20.900;2024-03-29T14:37:58;31.60;40.20
50544;DHT22;41176;44.032;20.900;2024-03-29T14:40:25;33.10;41.30
50544;DHT22;41176;44.032;20.900;2024-03-29T14:42:52;34.50;40.20
50544;DHT22;41176;44.032;20.900;2024-03-29T14:45:19;35.00;40.90
50544;DHT22;41176;44.032;20.900;2024-03-29T14:47:45;34.30;41.10
50544;DHT22;41176;44.032;20.900;2024-03-29T14:50:10;33.10;40.80
50544;DHT22;41176;44.032;20.900;2024-03-29T14:52:37;32.00;41.40
50544;DHT22;41176;44.032;20.900;2024-03-29T14:55:03;31.00;42.60
50544;DHT22;41176;44.032;20.900;2024-03-29T14:57:30;30.10;42.40
50544;DHT22;41176;44.032;20.900;2024-03-29T14:59:56;29.50;42.80
50544;DHT22;41176;44.032;20.900;2024-03-29T15:02:21;29.00;42.90
50544;DHT22;41176;44.032;20.900;2024-03-29T15:04:47;28.50;43.80
50544;DHT22;41176;44.032;20.900;2024-03-29T15:07:13;28.20;44.90
50544;DHT22;41176;44.032;20.900;2024-03-29T15:09:39;28.00;46.10
50544;DHT22;41176;44.032;20.900;2024-03-29T15:12:05;27.70;47.60
50544;DHT22;41176;44.032;20.900;2024-03-29T15:14:31;27.50;46.90
50544;DHT22;41176;44.032;20.900;2024-03-29T15:16:57;27.20;47.00
50544;DHT22;41176;44.032;20.900;2024-03-29T15:19:23;27.00;47.90
50544;DHT22;41176;44.032;20.900;2024-03-29T15:21:49;26.90;49.00